createdAt,value
2022-10-31T00:00:50.785Z,8.40
2022-10-31T00:03:20.421Z,8.40
2022-10-31T00:05:50.282Z,8.40
2022-10-31T00:08:19.084Z,8.30
2022-10-31T00:10:47.814Z,8.30
2022-10-31T00:13:16.643Z,8.30
2022-10-31T00:15:44.912Z,8.30
2022-10-31T00:18:13.412Z,8.20
2022-10-31T00:20:42.849Z,8.30
2022-10-31T00:23:12.574Z,8.20
2022-10-31T00:25:42.160Z,8.20
2022-10-31T00:28:11.628Z,8.20
2022-10-31T00:30:40.172Z,8.20
2022-10-31T00:33:08.006Z,8.20
2022-10-31T00:35:35.895Z,8.20
2022-10-31T00:38:05.070Z,8.30
2022-10-31T00:40:33.038Z,8.20
2022-10-31T00:43:01.265Z,8.20
2022-10-31T00:45:29.528Z,8.20
2022-10-31T00:47:57.777Z,8.20
2022-10-31T00:50:25.973Z,8.20
2022-10-31T00:52:53.937Z,8.20
2022-10-31T00:55:23.208Z,8.20
2022-10-31T00:57:51.168Z,8.20
2022-10-31T01:00:19.263Z,8.10
2022-10-31T01:02:47.656Z,8.10
2022-10-31T01:05:15.757Z,8.10
2022-10-31T01:07:44.195Z,8.10
2022-10-31T01:10:13.401Z,8.10
2022-10-31T01:12:44.590Z,8.10
2022-10-31T01:15:14.803Z,8.10
2022-10-31T01:17:42.860Z,8.10
2022-10-31T01:20:12.456Z,8.00
2022-10-31T01:22:40.503Z,8.00
2022-10-31T01:25:10.139Z,8.00
2022-10-31T01:27:38.115Z,8.00
2022-10-31T01:30:08.575Z,8.10
2022-10-31T01:32:36.560Z,8.00
2022-10-31T01:35:04.757Z,8.00
2022-10-31T01:37:33.501Z,8.00
2022-10-31T01:40:01.442Z,8.00
2022-10-31T01:42:29.456Z,8.00
2022-10-31T01:45:02.425Z,8.00
2022-10-31T01:47:39.884Z,7.90
2022-10-31T01:50:15.005Z,7.90
2022-10-31T01:52:46.780Z,7.90
2022-10-31T01:55:20.093Z,7.90
2022-10-31T01:57:52.793Z,7.90
2022-10-31T02:00:22.293Z,7.90
2022-10-31T02:02:52.463Z,7.90
2022-10-31T02:05:23.694Z,7.90
2022-10-31T02:07:56.475Z,7.90
2022-10-31T02:10:25.896Z,7.80
2022-10-31T02:12:56.804Z,7.80
2022-10-31T02:15:25.351Z,7.80
2022-10-31T02:17:55.166Z,7.80
2022-10-31T02:20:25.196Z,7.80
2022-10-31T02:23:18.659Z,7.70
2022-10-31T02:26:22.870Z,7.70
2022-10-31T02:29:08.887Z,7.70
2022-10-31T02:31:45.193Z,7.70
2022-10-31T02:34:20.989Z,7.70
2022-10-31T02:36:56.708Z,7.70
2022-10-31T02:39:28.435Z,7.70
2022-10-31T02:42:06.134Z,7.70
2022-10-31T02:44:40.364Z,7.70
2022-10-31T02:47:15.240Z,7.70
2022-10-31T02:49:47.894Z,7.60
2022-10-31T02:52:18.865Z,7.60
2022-10-31T02:54:48.512Z,7.50
2022-10-31T02:57:19.430Z,7.50
2022-10-31T02:59:52.212Z,7.50
2022-10-31T03:06:12.804Z,7.50
2022-10-31T03:08:52.017Z,7.50
2022-10-31T03:11:24.140Z,7.50
2022-10-31T03:13:59.529Z,7.40
2022-10-31T03:16:37.130Z,7.50
2022-10-31T03:19:08.779Z,7.50
2022-10-31T03:21:42.532Z,7.50
2022-10-31T03:24:12.663Z,7.50
2022-10-31T03:26:43.598Z,7.50
2022-10-31T03:29:14.789Z,7.40
2022-10-31T03:31:48.472Z,7.40
2022-10-31T03:34:19.140Z,7.30
2022-10-31T03:36:51.826Z,7.40
2022-10-31T03:39:22.195Z,7.40
2022-10-31T03:41:56.118Z,7.40
2022-10-31T03:44:25.701Z,7.40
2022-10-31T03:46:53.665Z,7.40
2022-10-31T03:49:21.922Z,7.30
2022-10-31T03:51:57.113Z,7.40
2022-10-31T03:54:33.942Z,7.30
2022-10-31T03:57:07.560Z,7.30
2022-10-31T03:59:39.164Z,7.30
2022-10-31T04:02:12.734Z,7.20
2022-10-31T04:04:41.750Z,7.20
2022-10-31T04:07:13.242Z,7.00
2022-10-31T04:09:45.590Z,7.10
2022-10-31T04:12:16.651Z,7.20
2022-10-31T04:14:48.785Z,7.10
2022-10-31T04:17:20.854Z,7.20
2022-10-31T04:19:48.790Z,7.20
2022-10-31T04:22:18.081Z,7.20
2022-10-31T04:24:46.032Z,7.20
2022-10-31T04:27:14.057Z,7.10
2022-10-31T04:29:44.408Z,7.20
2022-10-31T04:32:14.809Z,7.10
2022-10-31T04:34:42.734Z,7.20
2022-10-31T04:37:10.656Z,7.10
2022-10-31T04:39:39.967Z,7.10
2022-10-31T04:42:07.872Z,7.10
2022-10-31T04:44:35.711Z,7.10
2022-10-31T04:47:03.606Z,7.00
2022-10-31T04:49:31.455Z,7.10
2022-10-31T04:51:59.385Z,7.10
2022-10-31T04:54:27.392Z,7.10
2022-10-31T04:56:56.753Z,6.90
2022-10-31T04:59:24.763Z,7.00
2022-10-31T05:01:52.759Z,7.00
2022-10-31T05:04:20.780Z,7.00
2022-10-31T05:06:48.695Z,7.00
2022-10-31T05:09:16.819Z,7.10
2022-10-31T05:11:44.657Z,7.00
2022-10-31T05:14:15.299Z,7.00
2022-10-31T05:16:43.251Z,7.10
2022-10-31T05:19:13.253Z,7.00
2022-10-31T05:21:41.208Z,7.00
2022-10-31T05:24:11.934Z,7.10
2022-10-31T05:26:40.700Z,7.00
2022-10-31T05:29:08.679Z,6.90
2022-10-31T05:31:37.964Z,6.90
2022-10-31T05:34:06.078Z,7.00
2022-10-31T05:36:34.349Z,7.00
2022-10-31T05:39:02.462Z,7.00
2022-10-31T05:41:30.346Z,7.10
2022-10-31T05:43:58.393Z,7.00
2022-10-31T05:46:26.346Z,7.00
2022-10-31T05:48:58.714Z,7.00
2022-10-31T05:51:30.486Z,7.00
2022-10-31T05:53:58.382Z,7.00
2022-10-31T05:56:26.448Z,7.00
2022-10-31T05:58:54.438Z,7.00
2022-10-31T06:01:22.543Z,7.00
2022-10-31T06:03:50.645Z,7.00
2022-10-31T06:06:20.362Z,7.00
2022-10-31T06:08:48.450Z,7.00
2022-10-31T06:11:16.550Z,6.90
2022-10-31T06:13:44.512Z,7.00
2022-10-31T06:16:14.000Z,7.10
2022-10-31T06:18:41.867Z,7.10
2022-10-31T06:21:11.540Z,7.10
2022-10-31T06:23:43.561Z,7.10
2022-10-31T06:26:11.873Z,7.20
2022-10-31T06:28:51.194Z,7.20
2022-10-31T06:31:21.392Z,7.20
2022-10-31T06:33:49.629Z,7.20
2022-10-31T06:36:17.789Z,7.30
2022-10-31T06:38:47.611Z,7.30
2022-10-31T06:41:15.598Z,7.40
2022-10-31T06:43:43.558Z,7.40
2022-10-31T06:46:11.874Z,7.50
2022-10-31T06:48:39.949Z,7.70
2022-10-31T06:51:07.988Z,7.70
2022-10-31T06:53:36.111Z,7.70
2022-10-31T06:56:06.195Z,7.80
2022-10-31T06:58:35.209Z,7.90
2022-10-31T07:01:03.547Z,8.00
2022-10-31T07:03:31.579Z,8.10
2022-10-31T07:05:59.738Z,8.10
2022-10-31T07:08:27.949Z,8.20
2022-10-31T07:10:58.123Z,8.20
2022-10-31T07:13:27.470Z,8.30
2022-10-31T07:15:56.632Z,8.30
2022-10-31T07:18:24.675Z,8.30
2022-10-31T07:20:54.446Z,8.50
2022-10-31T07:23:22.359Z,8.60
2022-10-31T07:25:50.465Z,8.60
2022-10-31T07:28:18.529Z,8.90
2022-10-31T07:30:52.233Z,9.00
2022-10-31T07:33:20.372Z,9.00
2022-10-31T07:35:48.520Z,9.20
2022-10-31T07:38:17.442Z,9.30
2022-10-31T07:40:45.928Z,9.30
2022-10-31T07:43:14.859Z,9.50
2022-10-31T07:45:43.173Z,9.60
2022-10-31T07:48:12.663Z,9.70
2022-10-31T07:50:42.190Z,9.70
2022-10-31T07:53:20.727Z,9.80
2022-10-31T07:55:49.069Z,9.90
2022-10-31T07:58:18.400Z,9.90
2022-10-31T08:00:48.514Z,10.00
2022-10-31T08:03:19.859Z,10.00
2022-10-31T08:05:48.337Z,10.10
2022-10-31T08:08:17.718Z,10.00
2022-10-31T08:10:45.709Z,10.10
2022-10-31T08:13:15.266Z,10.20
2022-10-31T08:15:43.671Z,10.40
2022-10-31T08:18:15.059Z,10.30
2022-10-31T08:20:48.074Z,10.40
2022-10-31T08:23:17.083Z,10.50
2022-10-31T08:25:47.978Z,10.70
2022-10-31T08:28:16.657Z,10.80
2022-10-31T08:30:56.066Z,10.90
2022-10-31T08:33:29.005Z,11.10
2022-10-31T08:36:00.201Z,11.40
2022-10-31T08:38:28.402Z,11.70
2022-10-31T08:40:58.987Z,12.00
2022-10-31T08:43:28.481Z,12.30
2022-10-31T08:45:56.608Z,12.50
2022-10-31T08:48:24.609Z,12.50
2022-10-31T08:50:53.304Z,12.50
2022-10-31T08:53:23.773Z,12.60
2022-10-31T08:55:51.799Z,12.50
2022-10-31T08:58:22.814Z,12.60
2022-10-31T09:00:54.300Z,12.40
2022-10-31T09:03:24.407Z,12.40
2022-10-31T09:05:57.068Z,12.40
2022-10-31T09:08:27.155Z,12.60
2022-10-31T09:10:58.203Z,12.80
2022-10-31T09:13:28.274Z,13.00
2022-10-31T09:15:58.082Z,13.30
2022-10-31T09:18:28.862Z,13.60
2022-10-31T09:20:59.961Z,13.80
2022-10-31T09:23:29.595Z,14.10
2022-10-31T09:25:57.833Z,14.20
2022-10-31T09:28:26.468Z,14.40
2022-10-31T09:30:55.858Z,14.50
2022-10-31T09:33:24.099Z,14.60
2022-10-31T09:35:52.128Z,14.50
2022-10-31T09:38:26.626Z,14.50
2022-10-31T09:41:07.362Z,14.50
2022-10-31T09:43:41.837Z,14.50
2022-10-31T09:46:16.610Z,14.70
2022-10-31T09:48:58.610Z,14.90
2022-10-31T09:51:31.265Z,15.10
2022-10-31T09:54:06.960Z,15.20
2022-10-31T09:56:36.901Z,15.20
2022-10-31T09:59:07.824Z,15.20
2022-10-31T10:01:45.167Z,15.20
2022-10-31T10:04:25.216Z,15.10
2022-10-31T10:06:54.121Z,15.20
2022-10-31T10:09:26.302Z,15.20
2022-10-31T10:12:06.055Z,15.20
2022-10-31T10:14:46.637Z,15.20
2022-10-31T10:17:24.196Z,15.20
2022-10-31T10:20:19.831Z,15.40
2022-10-31T10:22:54.634Z,15.50
2022-10-31T10:25:25.352Z,15.50
2022-10-31T10:28:04.968Z,15.60
2022-10-31T10:30:39.345Z,15.70
2022-10-31T10:33:12.611Z,15.60
2022-10-31T10:35:45.033Z,15.60
2022-10-31T10:38:22.639Z,15.70
2022-10-31T10:40:51.906Z,15.60
2022-10-31T10:43:26.388Z,15.60
2022-10-31T10:46:40.760Z,15.70
2022-10-31T10:49:21.079Z,15.80
2022-10-31T10:52:13.161Z,15.80
2022-10-31T10:54:58.550Z,15.80
2022-10-31T10:57:44.195Z,15.90
2022-10-31T11:00:22.531Z,15.90
2022-10-31T11:02:50.896Z,16.00
2022-10-31T11:05:30.619Z,16.00
2022-10-31T11:07:58.546Z,16.00
2022-10-31T11:10:26.812Z,16.00
2022-10-31T11:13:09.014Z,16.00
2022-10-31T11:15:50.965Z,15.90
2022-10-31T11:20:58.672Z,16.00
2022-10-31T11:23:28.252Z,16.10
2022-10-31T11:25:58.302Z,16.10
2022-10-31T11:28:27.032Z,16.20
2022-10-31T11:31:00.059Z,16.20
2022-10-31T11:33:33.004Z,16.30
2022-10-31T11:36:02.007Z,16.30
2022-10-31T11:38:35.920Z,16.30
2022-10-31T11:41:12.233Z,16.40
2022-10-31T11:43:41.634Z,16.40
2022-10-31T11:46:20.074Z,16.40
2022-10-31T11:48:50.646Z,16.40
2022-10-31T11:51:23.922Z,16.40
2022-10-31T11:53:56.971Z,16.50
2022-10-31T11:56:28.829Z,16.50
2022-10-31T11:59:01.636Z,16.50
2022-10-31T12:01:33.614Z,16.60
2022-10-31T12:04:09.486Z,16.60
2022-10-31T12:06:39.700Z,16.60
2022-10-31T12:09:20.374Z,16.60
2022-10-31T12:12:10.800Z,16.60
2022-10-31T12:14:49.010Z,16.60
2022-10-31T12:17:25.560Z,16.70
2022-10-31T12:20:04.923Z,16.70
2022-10-31T12:22:41.728Z,16.70
2022-10-31T12:25:26.666Z,16.80
2022-10-31T12:28:17.043Z,16.70
2022-10-31T12:30:56.993Z,16.60
2022-10-31T12:33:45.529Z,16.60
2022-10-31T12:36:27.516Z,16.50
2022-10-31T12:39:25.560Z,16.60
2022-10-31T12:41:58.143Z,16.70
2022-10-31T12:44:52.629Z,16.80
2022-10-31T12:47:39.229Z,16.90
2022-10-31T12:50:22.719Z,16.90
2022-10-31T12:53:01.688Z,17.00
2022-10-31T12:55:42.541Z,16.90
2022-10-31T12:58:16.549Z,16.90
2022-10-31T13:00:48.635Z,16.80
2022-10-31T13:03:30.994Z,16.80
2022-10-31T13:06:05.517Z,16.80
2022-10-31T13:08:41.683Z,16.70
2022-10-31T13:11:14.514Z,16.70
2022-10-31T13:13:46.316Z,16.80
2022-10-31T13:16:21.781Z,16.70
2022-10-31T13:18:54.125Z,16.80
2022-10-31T13:21:25.901Z,16.80
2022-10-31T13:23:54.108Z,16.70
2022-10-31T13:26:29.189Z,16.50
2022-10-31T13:29:03.608Z,16.50
2022-10-31T13:31:31.778Z,16.30
2022-10-31T13:34:04.371Z,16.20
2022-10-31T13:36:40.231Z,16.20
2022-10-31T13:39:23.389Z,16.10
2022-10-31T13:41:56.531Z,16.00
2022-10-31T13:44:26.970Z,16.00
2022-10-31T13:46:55.847Z,15.90
2022-10-31T13:49:40.213Z,15.90
2022-10-31T13:52:16.593Z,15.80
2022-10-31T13:54:46.097Z,15.70
2022-10-31T13:57:20.920Z,15.50
2022-10-31T13:59:55.086Z,15.50
2022-10-31T14:02:28.969Z,15.40
2022-10-31T14:05:00.931Z,15.30
2022-10-31T14:07:31.564Z,15.20
2022-10-31T14:10:03.297Z,15.10
2022-10-31T14:12:35.569Z,15.10
2022-10-31T14:15:15.717Z,15.00
2022-10-31T14:17:50.024Z,14.90
2022-10-31T14:20:28.066Z,14.90
2022-10-31T14:22:57.506Z,14.80
2022-10-31T14:25:34.429Z,14.70
2022-10-31T14:28:04.804Z,14.60
2022-10-31T14:30:33.460Z,14.50
2022-10-31T14:33:03.823Z,14.40
2022-10-31T14:35:48.864Z,14.40
2022-10-31T14:38:56.950Z,14.40
2022-10-31T14:41:41.515Z,14.40
2022-10-31T14:44:29.930Z,14.30
2022-10-31T14:47:04.557Z,14.20
2022-10-31T14:50:05.032Z,14.20
2022-10-31T14:52:33.959Z,14.10
2022-10-31T14:55:06.623Z,14.10
2022-10-31T14:57:38.465Z,14.10
2022-10-31T15:00:09.687Z,14.00
2022-10-31T15:05:19.793Z,13.90
2022-10-31T15:07:52.991Z,13.90
2022-10-31T15:10:27.480Z,13.90
2022-10-31T15:12:55.680Z,13.80
2022-10-31T15:15:25.665Z,13.80
2022-10-31T15:17:56.754Z,13.70
2022-10-31T15:20:27.983Z,13.70
2022-10-31T15:22:58.448Z,13.70
2022-10-31T15:25:32.227Z,13.60
2022-10-31T15:28:00.502Z,13.60
2022-10-31T15:30:30.711Z,13.50
2022-10-31T15:32:59.438Z,13.50
2022-10-31T15:35:29.499Z,13.40
2022-10-31T15:37:59.446Z,13.40
2022-10-31T15:40:30.006Z,13.30
2022-10-31T15:43:00.595Z,13.30
2022-10-31T15:45:31.367Z,13.30
2022-10-31T15:48:01.831Z,13.20
2022-10-31T15:50:34.188Z,13.20
2022-10-31T15:53:03.057Z,13.20
2022-10-31T15:55:38.664Z,13.30
2022-10-31T15:58:13.931Z,13.20
2022-10-31T16:00:42.156Z,13.20
2022-10-31T16:03:22.703Z,13.20
2022-10-31T16:05:52.050Z,13.10
2022-10-31T16:08:35.494Z,13.10
2022-10-31T16:11:24.497Z,13.10
2022-10-31T16:14:01.214Z,13.10
2022-10-31T16:16:35.703Z,13.10
2022-10-31T16:19:07.233Z,13.10
2022-10-31T16:21:38.505Z,13.10
2022-10-31T16:24:18.250Z,13.00
2022-10-31T16:26:51.387Z,13.00
2022-10-31T16:29:30.705Z,13.00
2022-10-31T16:31:58.702Z,13.00
2022-10-31T16:34:27.263Z,13.00
2022-10-31T16:36:55.641Z,13.00
2022-10-31T16:39:23.308Z,13.00
2022-10-31T16:41:54.543Z,13.00
2022-10-31T16:44:25.413Z,13.00
2022-10-31T16:47:11.651Z,12.90
2022-10-31T16:49:39.734Z,12.90
2022-10-31T16:52:07.542Z,12.90
2022-10-31T16:54:35.783Z,12.80
2022-10-31T16:57:07.246Z,12.80
2022-10-31T16:59:36.116Z,12.80
2022-10-31T17:02:05.715Z,12.80
2022-10-31T17:04:33.911Z,12.70
2022-10-31T17:07:01.952Z,12.70
2022-10-31T17:09:30.105Z,12.70
2022-10-31T17:11:58.150Z,12.70
2022-10-31T17:14:27.969Z,12.60
2022-10-31T17:16:58.930Z,12.60
2022-10-31T17:19:26.797Z,12.60
2022-10-31T17:21:54.793Z,12.60
2022-10-31T17:24:22.909Z,12.60
2022-10-31T17:26:50.912Z,12.60
2022-10-31T17:29:18.942Z,12.60
2022-10-31T17:31:49.378Z,12.60
2022-10-31T17:34:19.154Z,12.60
2022-10-31T17:36:51.621Z,12.60
2022-10-31T17:39:20.128Z,12.50
2022-10-31T17:41:51.430Z,12.50
2022-10-31T17:44:20.160Z,12.50
2022-10-31T17:46:50.461Z,12.50
2022-10-31T17:49:18.556Z,12.50
2022-10-31T17:51:46.514Z,12.50
2022-10-31T17:54:18.507Z,12.40
2022-10-31T17:56:46.569Z,12.40
2022-10-31T17:59:14.533Z,12.40
2022-10-31T18:01:42.849Z,12.40
2022-10-31T18:04:12.240Z,12.40
2022-10-31T18:06:40.187Z,12.40
2022-10-31T18:09:08.383Z,12.40
2022-10-31T18:11:36.326Z,12.40
2022-10-31T18:14:04.532Z,12.40
2022-10-31T18:16:32.658Z,12.40
2022-10-31T18:19:01.966Z,12.40
2022-10-31T18:21:31.489Z,12.40
2022-10-31T18:24:00.745Z,12.40
2022-10-31T18:26:29.546Z,12.40
2022-10-31T18:28:57.622Z,12.40
2022-10-31T18:31:25.879Z,12.40
2022-10-31T18:33:54.694Z,12.40
2022-10-31T18:36:23.265Z,12.40
2022-10-31T18:38:52.720Z,12.40
2022-10-31T18:41:20.913Z,12.40
2022-10-31T18:43:48.812Z,12.40
2022-10-31T18:46:18.410Z,12.40
2022-10-31T18:48:47.037Z,12.40
2022-10-31T18:51:18.403Z,12.40
2022-10-31T18:53:53.029Z,12.40
2022-10-31T18:56:21.848Z,12.40
2022-10-31T18:58:50.096Z,12.40
2022-10-31T19:01:19.617Z,12.40
2022-10-31T19:03:52.836Z,12.40
2022-10-31T19:06:20.858Z,12.40
2022-10-31T19:08:48.819Z,12.30
2022-10-31T19:11:18.217Z,12.30
2022-10-31T19:13:46.129Z,12.30
2022-10-31T19:16:16.558Z,12.30
2022-10-31T19:18:45.420Z,12.30
2022-10-31T19:21:15.186Z,12.30
2022-10-31T19:23:44.061Z,12.30
2022-10-31T19:26:12.569Z,12.30
2022-10-31T19:28:42.751Z,12.30
2022-10-31T19:31:11.395Z,12.30
2022-10-31T19:33:39.831Z,12.30
2022-10-31T19:36:09.994Z,12.20
2022-10-31T19:38:39.260Z,12.20
2022-10-31T19:41:09.566Z,12.20
2022-10-31T19:43:38.037Z,12.20
2022-10-31T19:46:17.398Z,12.20
2022-10-31T19:48:57.185Z,12.20
2022-10-31T19:51:25.306Z,12.20
2022-10-31T19:53:53.653Z,12.20
2022-10-31T19:56:24.801Z,12.20
2022-10-31T19:58:52.991Z,12.20
2022-10-31T20:01:23.714Z,12.20
2022-10-31T20:03:52.226Z,12.20
2022-10-31T20:06:24.784Z,12.20
2022-10-31T20:08:53.503Z,12.10
2022-10-31T20:11:22.025Z,12.10
2022-10-31T20:13:50.422Z,12.20
2022-10-31T20:16:18.761Z,12.10
2022-10-31T20:18:48.072Z,12.10
2022-10-31T20:21:18.323Z,12.10
2022-10-31T20:23:47.531Z,12.10
2022-10-31T20:26:17.812Z,12.10
2022-10-31T20:28:46.590Z,12.10
2022-10-31T20:31:17.521Z,12.10
2022-10-31T20:33:47.126Z,12.10
2022-10-31T20:36:19.456Z,12.20
2022-10-31T20:38:48.044Z,12.20
2022-10-31T20:41:17.318Z,12.20
2022-10-31T20:43:45.778Z,12.20
2022-10-31T20:46:16.737Z,12.20
2022-10-31T20:48:45.855Z,12.10
2022-10-31T20:53:50.072Z,12.20
2022-10-31T20:56:20.162Z,12.20
2022-10-31T20:58:48.669Z,12.20
2022-10-31T21:01:18.474Z,12.20
2022-10-31T21:08:22.819Z,12.10
2022-10-31T21:16:38.397Z,12.10
2022-10-31T21:34:47.985Z,12.10
2022-10-31T21:44:17.666Z,12.00
2022-10-31T21:46:48.191Z,12.00
2022-10-31T21:49:16.284Z,11.90
2022-10-31T21:51:44.636Z,11.90
2022-10-31T21:54:30.149Z,11.90
2022-10-31T21:56:59.847Z,11.90
2022-10-31T21:59:28.122Z,11.90
2022-10-31T22:01:59.796Z,11.80
2022-10-31T22:04:28.519Z,11.70
2022-10-31T22:06:56.740Z,11.70
2022-10-31T22:09:24.734Z,11.60
2022-10-31T22:11:52.782Z,11.50
2022-10-31T22:14:20.612Z,11.40
2022-10-31T22:16:48.562Z,11.40
2022-10-31T22:19:17.956Z,11.30
2022-10-31T22:21:48.620Z,11.20
2022-10-31T22:24:18.051Z,11.20
2022-10-31T22:26:46.322Z,11.20
2022-10-31T22:29:16.555Z,11.10
2022-10-31T22:31:49.467Z,11.10
2022-10-31T22:34:21.520Z,11.00
2022-10-31T22:36:49.448Z,11.00
2022-10-31T22:39:17.421Z,11.00
2022-10-31T22:41:45.407Z,11.00
2022-10-31T22:44:13.628Z,11.00
2022-10-31T22:46:41.876Z,11.00
2022-10-31T22:49:14.005Z,11.00
2022-10-31T22:51:44.381Z,11.00
2022-10-31T22:54:17.377Z,11.00
2022-10-31T22:56:45.674Z,11.10
2022-10-31T22:59:14.838Z,11.10
2022-10-31T23:01:44.870Z,11.10
2022-10-31T23:04:13.464Z,11.20
2022-10-31T23:06:43.197Z,11.10
2022-10-31T23:09:15.828Z,11.20
2022-10-31T23:11:44.176Z,11.20
2022-10-31T23:14:16.886Z,11.30
2022-10-31T23:16:48.161Z,11.30
2022-10-31T23:19:18.548Z,11.30
2022-10-31T23:21:56.158Z,11.30
2022-10-31T23:24:26.387Z,11.40
2022-10-31T23:27:10.024Z,11.40
2022-10-31T23:29:44.480Z,11.40
2022-10-31T23:32:17.543Z,11.50
2022-10-31T23:34:46.056Z,11.50
2022-10-31T23:37:16.611Z,11.50
2022-10-31T23:39:44.820Z,11.50
2022-10-31T23:42:13.703Z,11.70
2022-10-31T23:44:41.654Z,11.60
2022-10-31T23:47:10.049Z,11.60
2022-10-31T23:49:38.117Z,11.70
2022-10-31T23:52:06.825Z,11.80
2022-10-31T23:54:36.440Z,11.80
2022-10-31T23:57:05.156Z,11.80
2022-10-31T23:59:33.319Z,11.80
